createdAt,value
2018-05-08T00:00:38.710Z,2.57
2018-05-08T00:03:06.096Z,2.70
2018-05-08T00:05:33.493Z,2.50
2018-05-08T00:08:00.896Z,2.30
2018-05-08T00:10:28.268Z,2.80
2018-05-08T00:12:55.685Z,2.93
2018-05-08T00:15:23.688Z,2.90
2018-05-08T00:17:51.084Z,2.73
2018-05-08T00:20:18.467Z,3.70
2018-05-08T00:22:45.855Z,3.80
2018-05-08T00:25:13.235Z,3.53
2018-05-08T00:27:40.644Z,4.00
2018-05-08T00:30:08.025Z,3.77
2018-05-08T00:32:35.432Z,4.00
2018-05-08T00:35:03.253Z,4.27
2018-05-08T00:37:30.651Z,4.50
2018-05-08T00:39:58.044Z,5.50
2018-05-08T00:42:25.455Z,6.12
2018-05-08T00:44:52.851Z,5.27
2018-05-08T00:47:20.264Z,4.50
2018-05-08T00:49:47.652Z,4.43
2018-05-08T00:52:15.042Z,4.73
2018-05-08T00:54:54.232Z,4.17
2018-05-08T00:57:21.616Z,4.20
2018-05-08T00:59:49.414Z,3.40
2018-05-08T01:02:16.805Z,3.77
2018-05-08T01:04:44.758Z,4.33
2018-05-08T01:07:12.145Z,4.00
2018-05-08T01:09:39.536Z,3.80
2018-05-08T01:12:06.921Z,4.63
2018-05-08T01:14:34.332Z,2.75
2018-05-08T01:17:01.787Z,3.73
2018-05-08T01:19:29.117Z,3.10
2018-05-08T01:21:56.496Z,3.80
2018-05-08T01:24:23.904Z,3.70
2018-05-08T01:26:51.305Z,4.10
2018-05-08T01:29:18.726Z,2.80
2018-05-08T01:31:46.134Z,3.43
2018-05-08T01:34:14.858Z,5.53
2018-05-08T01:36:42.247Z,4.37
2018-05-08T01:39:09.646Z,3.93
2018-05-08T01:41:37.047Z,5.17
2018-05-08T01:44:04.436Z,4.37
2018-05-08T01:46:31.841Z,4.10
2018-05-08T01:48:59.291Z,3.60
2018-05-08T01:51:26.744Z,3.97
2018-05-08T01:53:54.145Z,4.60
2018-05-08T01:56:21.535Z,4.30
2018-05-08T01:58:48.940Z,5.10
2018-05-08T02:01:16.316Z,4.53
2018-05-08T02:03:43.701Z,4.78
2018-05-08T02:06:11.090Z,4.13
2018-05-08T02:08:38.485Z,5.10
2018-05-08T02:11:05.868Z,4.73
2018-05-08T02:13:33.275Z,4.65
2018-05-08T02:16:00.664Z,4.77
2018-05-08T02:18:28.065Z,4.70
2018-05-08T02:20:55.871Z,4.47
2018-05-08T02:23:23.304Z,5.27
2018-05-08T02:25:51.488Z,5.65
2018-05-08T02:28:18.895Z,5.60
2018-05-08T02:30:46.288Z,6.10
2018-05-08T02:33:13.696Z,5.53
2018-05-08T02:35:41.099Z,5.10
2018-05-08T02:38:08.505Z,5.17
2018-05-08T02:40:36.590Z,5.20
2018-05-08T02:43:03.977Z,5.00
2018-05-08T02:45:31.372Z,6.03
2018-05-08T02:47:58.760Z,4.93
2018-05-08T02:50:26.822Z,4.67
2018-05-08T02:52:54.206Z,5.50
2018-05-08T02:55:22.300Z,5.30
2018-05-08T02:57:49.840Z,5.60
2018-05-08T03:00:17.237Z,5.17
2018-05-08T03:02:44.608Z,5.40
2018-05-08T03:05:12.013Z,5.20
2018-05-08T03:07:39.384Z,4.27
2018-05-08T03:10:06.788Z,5.27
2018-05-08T03:12:34.192Z,6.43
2018-05-08T03:15:01.594Z,5.53
2018-05-08T03:17:29.760Z,5.53
2018-05-08T03:19:57.525Z,5.80
2018-05-08T03:22:24.994Z,5.20
2018-05-08T03:24:52.332Z,4.70
2018-05-08T03:27:19.727Z,4.60
2018-05-08T03:29:47.112Z,5.17
2018-05-08T03:32:14.487Z,5.47
2018-05-08T03:34:41.880Z,5.80
2018-05-08T03:37:10.143Z,5.70
2018-05-08T03:39:37.524Z,5.57
2018-05-08T03:42:04.932Z,5.37
2018-05-08T03:44:32.307Z,6.00
2018-05-08T03:46:59.697Z,6.85
2018-05-08T03:49:27.080Z,5.23
2018-05-08T03:51:54.456Z,4.70
2018-05-08T03:54:21.847Z,4.90
2018-05-08T03:56:49.237Z,5.23
2018-05-08T03:59:16.627Z,5.20
2018-05-08T04:01:55.704Z,5.80
2018-05-08T04:04:34.775Z,4.90
2018-05-08T04:07:13.853Z,4.90
2018-05-08T04:09:41.903Z,4.90
2018-05-08T04:12:09.288Z,4.40
2018-05-08T04:14:36.677Z,5.20
2018-05-08T04:17:04.662Z,5.73
2018-05-08T04:19:32.115Z,6.60
2018-05-08T04:21:59.485Z,6.47
2018-05-08T04:24:27.729Z,6.00
2018-05-08T04:26:55.108Z,6.67
2018-05-08T04:29:22.502Z,5.60
2018-05-08T04:31:49.896Z,6.50
2018-05-08T04:34:17.272Z,6.10
2018-05-08T04:36:44.846Z,5.73
2018-05-08T04:39:12.216Z,5.10
2018-05-08T04:41:39.627Z,5.80
2018-05-08T04:44:06.998Z,5.07
2018-05-08T04:46:34.403Z,5.63
2018-05-08T04:49:02.628Z,4.70
2018-05-08T04:51:30.020Z,5.03
2018-05-08T04:53:57.408Z,4.50
2018-05-08T04:56:24.801Z,5.30
2018-05-08T04:58:52.189Z,4.47
2018-05-08T05:01:19.584Z,4.43
2018-05-08T05:03:46.978Z,4.67
2018-05-08T05:06:14.347Z,4.60
2018-05-08T05:08:42.081Z,5.30
2018-05-08T05:11:09.862Z,4.10
2018-05-08T05:13:37.248Z,3.33
2018-05-08T05:16:04.640Z,4.13
2018-05-08T05:18:32.021Z,3.37
2018-05-08T05:20:59.424Z,3.37
2018-05-08T05:23:26.808Z,3.23
2018-05-08T05:25:54.209Z,3.70
2018-05-08T05:28:21.589Z,4.40
2018-05-08T05:30:49.004Z,5.50
2018-05-08T05:33:16.385Z,5.40
2018-05-08T05:35:43.788Z,5.10
2018-05-08T05:38:11.169Z,4.85
2018-05-08T05:40:38.570Z,5.40
2018-05-08T05:43:05.947Z,4.73
2018-05-08T05:45:33.345Z,5.00
2018-05-08T05:48:00.733Z,4.73
2018-05-08T05:50:28.128Z,4.33
2018-05-08T05:52:55.515Z,3.70
2018-05-08T05:55:23.327Z,3.62
2018-05-08T05:57:50.727Z,4.80
2018-05-08T06:00:19.516Z,4.12
2018-05-08T06:02:46.917Z,4.60
2018-05-08T06:05:15.589Z,4.22
2018-05-08T06:07:42.977Z,4.40
2018-05-08T06:10:10.368Z,4.70
2018-05-08T06:12:37.765Z,3.90
2018-05-08T06:15:05.165Z,4.53
2018-05-08T06:17:32.563Z,3.60
2018-05-08T06:19:59.947Z,5.22
2018-05-08T06:22:27.348Z,4.87
2018-05-08T06:24:54.732Z,3.90
2018-05-08T06:27:22.128Z,4.93
2018-05-08T06:29:49.517Z,4.17
2018-05-08T06:32:17.130Z,4.73
2018-05-08T06:34:44.519Z,4.80
2018-05-08T06:37:11.929Z,4.53
2018-05-08T06:39:39.316Z,5.00
2018-05-08T06:42:06.707Z,4.40
2018-05-08T06:44:34.100Z,4.07
2018-05-08T06:47:01.493Z,4.50
2018-05-08T06:49:28.874Z,4.00
2018-05-08T06:51:56.272Z,3.67
2018-05-08T06:54:23.664Z,4.10
2018-05-08T06:56:51.055Z,3.90
2018-05-08T06:59:18.451Z,2.77
2018-05-08T07:01:45.860Z,3.58
2018-05-08T07:04:13.235Z,3.40
2018-05-08T07:06:40.647Z,3.10
2018-05-08T07:09:08.132Z,2.70
2018-05-08T07:11:35.429Z,3.25
2018-05-08T07:14:02.807Z,3.00
2018-05-08T07:16:30.203Z,3.37
2018-05-08T07:18:57.585Z,2.90
2018-05-08T07:21:25.010Z,3.42
2018-05-08T07:23:52.426Z,2.53
2018-05-08T07:26:19.797Z,2.10
2018-05-08T07:28:47.180Z,2.80
2018-05-08T07:31:14.560Z,2.33
2018-05-08T07:33:41.967Z,2.30
2018-05-08T07:36:10.184Z,3.10
2018-05-08T07:38:38.388Z,2.93
2018-05-08T07:41:05.764Z,2.63
2018-05-08T22:02:38.283Z,2.80
2018-05-08T22:05:05.669Z,3.27
2018-05-08T22:07:33.071Z,2.13
2018-05-08T22:10:00.444Z,2.67
2018-05-08T22:12:27.836Z,2.60
2018-05-08T22:14:55.221Z,2.50
2018-05-08T22:17:23.020Z,2.40
2018-05-08T22:19:50.412Z,3.03
2018-05-08T22:22:17.803Z,2.90
2018-05-08T22:24:45.196Z,2.70
2018-05-08T22:27:12.939Z,2.23
2018-05-08T22:29:40.334Z,2.53
2018-05-08T22:32:07.728Z,2.87
2018-05-08T22:34:35.114Z,2.75
2018-05-08T22:37:02.515Z,2.23
2018-05-08T22:39:29.892Z,1.97
2018-05-08T22:41:57.305Z,2.83
2018-05-08T22:44:24.689Z,2.28
2018-05-08T22:46:52.080Z,2.40
2018-05-08T22:49:19.485Z,2.30
2018-05-08T22:51:46.878Z,2.33
2018-05-08T22:54:15.253Z,2.62
2018-05-08T22:56:42.645Z,3.30
2018-05-08T22:59:10.055Z,3.47
2018-05-08T23:01:37.435Z,3.00
2018-05-08T23:04:04.835Z,2.23
2018-05-08T23:06:32.220Z,2.73
2018-05-08T23:08:59.613Z,3.90
2018-05-08T23:11:26.995Z,1.85
2018-05-08T23:13:54.390Z,2.22
2018-05-08T23:16:21.771Z,2.10
2018-05-08T23:18:49.165Z,2.50
2018-05-08T23:21:16.568Z,3.43
2018-05-08T23:23:43.966Z,2.37
2018-05-08T23:26:11.364Z,2.40
2018-05-08T23:28:38.750Z,2.03
2018-05-08T23:31:06.569Z,2.10
2018-05-08T23:33:33.949Z,2.20
2018-05-08T23:36:01.324Z,2.10
2018-05-08T23:38:28.726Z,2.40
2018-05-08T23:40:56.112Z,2.00
2018-05-08T23:43:23.492Z,2.13
2018-05-08T23:45:50.895Z,2.40
2018-05-08T23:48:18.298Z,2.23
2018-05-08T23:50:45.692Z,2.63
2018-05-08T23:53:13.079Z,2.37
2018-05-08T23:55:40.476Z,2.73
2018-05-08T23:58:07.879Z,2.10
